地図

経路データ

SID SEASON NUMBER BASIN SUBBASIN NAME ISO_TIME NATURE LAT LON WMO_WIND WMO_PRES WMO_AGENCY TRACK_TYPE DIST2LAND LANDFALL IFLAG USA_AGENCY USA_ATCF_ID USA_LAT USA_LON USA_RECORD USA_STATUS USA_WIND USA_PRES USA_SSHS USA_R34_NE USA_R34_SE USA_R34_SW USA_R34_NW USA_R50_NE USA_R50_SE USA_R50_SW USA_R50_NW USA_R64_NE USA_R64_SE USA_R64_SW USA_R64_NW USA_POCI USA_ROCI USA_RMW USA_EYE TOKYO_LAT TOKYO_LON TOKYO_GRADE TOKYO_WIND TOKYO_PRES TOKYO_R50_DIR TOKYO_R50_LONG TOKYO_R50_SHORT TOKYO_R30_DIR TOKYO_R30_LONG TOKYO_R30_SHORT TOKYO_LAND CMA_LAT CMA_LON CMA_CAT CMA_WIND CMA_PRES HKO_LAT HKO_LON HKO_CAT HKO_WIND HKO_PRES NEWDELHI_LAT NEWDELHI_LON NEWDELHI_GRADE NEWDELHI_WIND NEWDELHI_PRES NEWDELHI_CI NEWDELHI_DP NEWDELHI_POCI REUNION_LAT REUNION_LON REUNION_TYPE REUNION_WIND REUNION_PRES REUNION_TNUM REUNION_CI REUNION_RMW REUNION_R34_NE REUNION_R34_SE REUNION_R34_SW REUNION_R34_NW REUNION_R50_NE REUNION_R50_SE REUNION_R50_SW REUNION_R50_NW REUNION_R64_NE REUNION_R64_SE REUNION_R64_SW REUNION_R64_NW BOM_LAT BOM_LON BOM_TYPE BOM_WIND BOM_PRES BOM_TNUM BOM_CI BOM_RMW BOM_R34_NE BOM_R34_SE BOM_R34_SW BOM_R34_NW BOM_R50_NE BOM_R50_SE BOM_R50_SW BOM_R50_NW BOM_R64_NE BOM_R64_SE BOM_R64_SW BOM_R64_NW BOM_ROCI BOM_POCI BOM_EYE BOM_POS_METHOD BOM_PRES_METHOD NADI_LAT NADI_LON NADI_CAT NADI_WIND NADI_PRES WELLINGTON_LAT WELLINGTON_LON WELLINGTON_WIND WELLINGTON_PRES DS824_LAT DS824_LON DS824_STAGE DS824_WIND DS824_PRES TD9636_LAT TD9636_LON TD9636_STAGE TD9636_WIND TD9636_PRES TD9635_LAT TD9635_LON TD9635_WIND TD9635_PRES TD9635_ROCI NEUMANN_LAT NEUMANN_LON NEUMANN_CLASS NEUMANN_WIND NEUMANN_PRES MLC_LAT MLC_LON MLC_CLASS MLC_WIND MLC_PRES USA_GUST BOM_GUST BOM_GUST_PER REUNION_GUST REUNION_GUST_PER USA_SEAHGT USA_SEARAD_NE USA_SEARAD_SE USA_SEARAD_SW USA_SEARAD_NW STORM_SPEED STORM_DIR
1982113S06085 1982 26 SI MM KARLA 1982-04-23 06:00:00 TS -6.20000 85.4000 main 1457 1448 O_________O_O_ jtwc_sh SH271982 -6.20000 85.4000 20 -1 -6.20000 85.4000 1 20 -6.20000 85.4000 TC 20 10 259
1982113S06085 1982 26 SI MM KARLA 1982-04-23 09:00:00 TS -6.29868 84.9024 main 1448 1441 P_________P_P_ SH271982 -6.29009 84.9075 22 -1 -6.31587 84.8922 1 21 -6.29009 84.9075 TC 22 10 258
1982113S06085 1982 26 SI MM KARLA 1982-04-23 12:00:00 TS -6.41174 84.3925 main 1441 1435 O_________P_O_ jtwc_sh SH271982 -6.40000 84.4000 25 -1 -6.43522 84.3774 1 22 -6.40000 84.4000 TC 25 11 256
1982113S06085 1982 26 SI MM KARLA 1982-04-23 15:00:00 TS -6.54894 83.8596 main 1437 1437 P_________P_P_ SH271982 -6.54244 83.8650 25 -1 -6.56196 83.8490 1 23 -6.54244 83.8650 TC 25 11 255
1982113S06085 1982 26 SI MM KARLA 1982-04-23 18:00:00 TS -6.70000 83.3000 main 1443 1438 O_________O_O_ jtwc_sh SH271982 -6.70000 83.3000 25 -1 -6.70000 83.3000 1 25 -6.70000 83.3000 TC 25 12 255
1982113S06085 1982 26 SI MM KARLA 1982-04-23 21:00:00 TS -6.85034 82.7046 main 1453 1446 P_________P_P_ SH271982 -6.85001 82.6925 25 -1 -6.85099 82.7289 1 25 -6.85001 82.6925 TC 25 12 256
1982113S06085 1982 26 SI MM KARLA 1982-04-24 00:00:00 TS -7.00254 82.1184 main 1455 1453 O_________P_O_ jtwc_sh SH271982 -7.00000 82.1000 25 -1 -7.00762 82.1552 1 25 -7.00000 82.1000 TC 25 12 255
1982113S06085 1982 26 SI MM KARLA 1982-04-24 03:00:00 TS -7.15844 81.5763 main 1472 1470 P_________P_P_ SH271982 -7.15746 81.5625 25 -1 -7.16041 81.6039 1 25 -7.15746 81.5625 TC 25 11 254
1982113S06085 1982 26 SI MM KARLA 1982-04-24 06:00:00 TS -7.30000 81.1000 main 1480 1479 O_________O_O_ jtwc_sh SH271982 -7.30000 81.1000 25 -1 -7.30000 81.1000 1 25 -7.30000 81.1000 TC 25 9 253
1982113S06085 1982 26 SI MM KARLA 1982-04-24 09:00:00 TS -7.41367 80.7148 main 1490 1490 P_________P_P_ SH271982 -7.40739 80.7349 25 -1 -7.42621 80.6746 1 26 -7.40739 80.7349 TC 25 8 254
1982113S06085 1982 26 SI MM KARLA 1982-04-24 12:00:00 TS -7.51235 80.3658 main 1501 1501 O_________P_O_ jtwc_sh SH271982 -7.50000 80.4000 25 -1 -7.53706 80.2974 1 27 -7.50000 80.4000 TC 25 8 254
1982113S06085 1982 26 SI MM KARLA 1982-04-24 15:00:00 TS -7.61980 79.9822 main 1514 1514 P_________P_P_ SH271982 -7.61500 80.0000 27 -1 -7.62939 79.9465 1 28 -7.61500 80.0000 TC 27 8 256
1982113S06085 1982 26 SI MM KARLA 1982-04-24 18:00:00 TS -7.70000 79.6000 main 1528 1528 O_________O_O_ jtwc_sh SH271982 -7.70000 79.6000 30 -1 -7.70000 79.6000 1 30 -7.70000 79.6000 TC 30 7 262
1982113S06085 1982 26 SI MM KARLA 1982-04-24 21:00:00 TS -7.71912 79.2362 main 1531 1531 P_________P_P_ SH271982 -7.70743 79.2499 32 -1 -7.74249 79.2086 1 32 -7.70743 79.2499 TC 32 7 268
1982113S06085 1982 26 SI MM KARLA 1982-04-25 00:00:00 TS -7.72167 78.8733 main 1535 1535 O_________P_O_ jtwc_sh SH271982 -7.70000 78.9000 35 0 -7.76501 78.8199 1 35 -7.70000 78.9000 TC 35 8 267
1982113S06085 1982 26 SI MM KARLA 1982-04-25 03:00:00 TS -7.75502 78.4771 main 1552 1552 P_________P_P_ SH271982 -7.74252 78.4925 37 0 -7.78001 78.4462 1 37 -7.74252 78.4925 TC 37 8 262
1982113S06085 1982 26 SI MM KARLA 1982-04-25 06:00:00 TS -7.83077 78.1077 36 991 reunion main 1560 1560 O____O____O_O_ jtwc_sh SH271982 -7.80000 78.1000 40 0 -8.20000 78.2000 3 36 991 3.00000 3.00000 -7.80000 78.1000 2 40 -7.80000 78.1000 TC 40 7 259
1982113S06085 1982 26 SI MM KARLA 1982-04-25 09:00:00 TS -7.88967 77.8076 main 1577 1577 P____P____P_P_ SH271982 -7.84996 77.7775 42 0 -8.14248 77.9750 3 -7.84270 77.7841 2 42 -7.84996 77.7775 TC 42 6 259
1982113S06085 1982 26 SI MM KARLA 1982-04-25 12:00:00 TS -7.93797 77.5393 reunion main 1584 1584 O____O____P_O_ jtwc_sh SH271982 -7.90000 77.5000 45 0 -8.10000 77.7000 99 9.90000 -7.89237 77.4975 2 45 -7.90000 77.5000 TC 45 5 260
1982113S06085 1982 26 SI MM KARLA 1982-04-25 15:00:00 TS -7.98272 77.2643 main 1600 1600 P____P____P_P_ SH271982 -7.94998 77.2350 47 0 -8.08504 77.3500 99 -7.94586 77.2372 2 47 -7.94998 77.2350 TC 47 5 261
1982113S06085 1982 26 SI MM KARLA 1982-04-25 18:00:00 TS -8.02500 77.0000 reunion main 1608 1608 O____O____O_O_ jtwc_sh SH271982 -8.00000 77.0000 50 0 -8.10000 77.0000 99 9.90000 -8.00000 77.0000 2 50 -8.00000 77.0000 TC 50 5 260
1982113S06085 1982 26 SI MM KARLA 1982-04-25 21:00:00 TS -8.06730 76.7734 main 1624 1624 P____P____P_P_ SH271982 -8.04998 76.7925 52 0 -8.12744 76.7425 99 -8.04182 76.7662 2 52 -8.04998 76.7925 TC 52 4 257
1982113S06085 1982 26 SI MM KARLA 1982-04-26 00:00:00 TS -8.12123 76.5637 reunion main 1630 1630 O____O____P_O_ jtwc_sh SH271982 -8.10000 76.6000 55 0 -8.20000 76.5000 99 9.90000 -8.08494 76.5550 2 55 -8.10000 76.6000 TC 55 5 255
1982113S06085 1982 26 SI MM KARLA 1982-04-26 03:00:00 TS -8.18703 76.3341 main 1650 1650 P____P____P_P_ SH271982 -8.14250 76.3925 57 0 -8.32754 76.1850 99 -8.13559 76.3662 2 57 -8.14250 76.3925 TC 57 5 250
1982113S06085 1982 26 SI MM KARLA 1982-04-26 06:00:00 TS -8.27500 76.1250 52 976 reunion main 1667 1667 O____O____O_O_ jtwc_sh SH271982 -8.20000 76.2000 60 0 -8.50000 75.9000 3 52 976 4.00000 4.00000 -8.20000 76.2000 2 60 -8.20000 76.2000 TC 60 4 240
1982113S06085 1982 26 SI MM KARLA 1982-04-26 09:00:00 TS -8.39349 75.9655 main 1681 1681 P____P____P_P_ SH271982 -8.29249 76.0350 62 0 -8.70744 75.7425 3 -8.28152 76.0494 2 62 -8.29249 76.0350 TC 62 4 230
1982113S06085 1982 26 SI MM KARLA 1982-04-26 12:00:00 TS -8.51936 75.8300 reunion main 1699 1699 O____O____P_O_ jtwc_sh SH271982 -8.40000 75.9000 65 1 -8.90000 75.6000 99 9.90000 -8.37745 75.9200 2 65 -8.40000 75.9000 TC 65 4 232
1982113S06085 1982 26 SI MM KARLA 1982-04-26 15:00:00 TS -8.61555 75.6833 main 1713 1713 P____P____P_P_ SH271982 -8.49999 75.7925 67 1 -8.97755 75.3424 99 -8.48466 75.8056 2 67 -8.49999 75.7925 TC 67 3 233
1982113S06085 1982 26 SI MM KARLA 1982-04-26 18:00:00 TS -8.72500 75.5500 reunion main 1727 1731 O____O____O_O_ jtwc_sh SH271982 -8.60000 75.7000 70 1 -9.10000 75.1000 99 9.90000 -8.60000 75.7000 4 70 -8.60000 75.7000 TC 70 4 223
1982113S06085 1982 26 SI MM KARLA 1982-04-26 21:00:00 TS -8.87953 75.4319 main 1755 1755 P____P____P_P_ SH271982 -8.69250 75.6000 72 1 -9.42748 74.9550 99 -8.70563 75.5725 4 72 -8.69250 75.6000 TC 72 4 213
1982113S06085 1982 26 SI MM KARLA 1982-04-27 00:00:00 TS -9.05500 75.3388 reunion main 1780 1780 O____O____P_O_ jtwc_sh SH271982 -8.80000 75.5000 75 1 -9.80000 74.9000 99 9.90000 -8.82001 75.4550 4 75 -8.80000 75.5000 TC 75 4 206
1982113S06085 1982 26 SI MM KARLA 1982-04-27 03:00:00 TS -9.22859 75.2606 main 1791 1791 P____P____P_P_ SH271982 -8.93501 75.3850 77 1 -10.0950 74.9124 99 -8.94938 75.3600 4 77 -8.93501 75.3850 TC 77 4 198
1982113S06085 1982 26 SI MM KARLA 1982-04-27 06:00:00 TS -9.40000 75.2250 52 976 reunion main 1815 1815 O____O____O_O_ jtwc_sh SH271982 -9.10000 75.3000 80 1 -10.3000 75.0000 3 52 976 4.00000 4.00000 -9.10000 75.3000 4 80 -9.10000 75.3000 TC 80 3 0
1982113S06085 1982 26 SI MM KARLA 1982-04-27 09:00:00 TS -9.56952 75.2369 main 1837 1833 P____P____P_P_ SH271982 -9.29249 75.2775 82 1 -10.4025 75.1200 3 -9.29059 75.2728 4 81 -9.29249 75.2775 TC 82 3 169
1982113S06085 1982 26 SI MM KARLA 1982-04-27 12:00:00 TS -9.72499 75.2956 reunion main 1844 1844 O____O____P_O_ jtwc_sh SH271982 -9.50000 75.3000 85 2 -10.4000 75.3000 99 9.90000 -9.49995 75.2825 4 82 -9.50000 75.3000 TC 85 3 153
1982113S06085 1982 26 SI MM KARLA 1982-04-27 15:00:00 TS -9.86359 75.3865 main 1861 1858 P____P____P_P_ SH271982 -9.71500 75.3350 85 2 -10.3150 75.5501 99 -9.70934 75.3259 4 83 -9.71500 75.3350 TC 85 3 141
1982113S06085 1982 26 SI MM KARLA 1982-04-27 18:00:00 TS -9.97500 75.5000 reunion main 1869 1865 O____O____O_O_ jtwc_sh SH271982 -9.90000 75.4000 85 2 -10.2000 75.8000 99 9.90000 -9.90000 75.4000 4 85 -9.90000 75.4000 TC 85 3 133
1982113S06085 1982 26 SI MM KARLA 1982-04-27 21:00:00 TS -10.0510 75.5961 main 1876 1873 P____P____P_P_ SH271982 -10.0075 75.4850 85 2 -10.1424 75.9425 99 -10.0465 75.4719 4 86 -10.0075 75.4850 TC 85 3 123
1982113S06085 1982 26 SI MM KARLA 1982-04-28 00:00:00 TS -10.1181 75.7188 reunion main 1873 1870 O____O____P_O_ jtwc_sh SH271982 -10.1000 75.6000 85 2 -10.1000 76.1000 99 9.90000 -10.1724 75.5751 4 87 -10.1000 75.6000 TC 85 3 118
1982113S06085 1982 26 SI MM KARLA 1982-04-28 03:00:00 TS -10.2074 75.8889 main 1877 1874 P____P____P_P_ SH271982 -10.2500 75.7275 87 2 -10.0425 76.3850 99 -10.2871 75.7157 4 88 -10.2500 75.7275 TC 87 4 116
1982113S06085 1982 26 SI MM KARLA 1982-04-28 06:00:00 TS -10.3000 76.1000 52 976 reunion main 1882 1876 O____O____O_O_ jtwc_sh SH271982 -10.4000 75.9000 90 2 -10.0000 76.7000 3 52 976 4.00000 4.00000 -10.4000 75.9000 4 90 -10.4000 75.9000 TC 90 5 110
1982113S06085 1982 26 SI MM KARLA 1982-04-28 09:00:00 TS -10.3700 76.3333 main 1887 1879 P____P____P_P_ SH271982 -10.5000 76.1275 90 2 -9.95495 76.9501 3 -10.5250 76.1278 4 91 -10.5000 76.1275 TC 90 5 108
1982113S06085 1982 26 SI MM KARLA 1982-04-28 12:00:00 TS -10.4625 76.5994 reunion main 1890 1885 O____O____P_O_ jtwc_sh SH271982 -10.6000 76.4000 90 2 -10.0000 77.2000 99 9.90000 -10.6501 76.3975 4 92 -10.6000 76.4000 TC 90 6 114
1982113S06085 1982 26 SI MM KARLA 1982-04-28 15:00:00 TS -10.6219 76.9002 main 1893 1893 P____P____P_P_ SH271982 -10.7500 76.6925 92 2 -10.2126 77.5224 99 -10.7750 76.6935 4 93 -10.7500 76.6925 TC 92 7 120
1982113S06085 1982 26 SI MM KARLA 1982-04-28 18:00:00 TS -10.8000 77.2000 reunion main 1908 1906 O____O____O_O_ jtwc_sh SH271982 -10.9000 77.0000 95 2 -10.5000 77.8000 99 9.90000 -10.9000 77.0000 4 95 -10.9000 77.0000 TC 95 6 120
1982113S06085 1982 26 SI MM KARLA 1982-04-28 21:00:00 TS -10.9359 77.4568 main 1913 1913 P____P____P_P_ SH271982 -11.0000 77.3001 95 2 -10.7349 77.9301 99 -11.0087 77.2970 4 96 -11.0000 77.3001 TC 95 6 120
1982113S06085 1982 26 SI MM KARLA 1982-04-29 00:00:00 TS -11.0800 77.7001 reunion main 1931 1929 O____O____P_O_ jtwc_sh SH271982 -11.1000 77.6000 95 2 -11.0000 78.0000 99 9.90000 -11.1200 77.6003 4 97 -11.1000 77.6000 TC 95 6 125
1982113S06085 1982 26 SI MM KARLA 1982-04-29 03:00:00 TS -11.2684 77.9452 main 1950 1948 P____P____P_P_ SH271982 -11.2350 77.9000 97 3 -11.3575 78.0775 99 -11.2462 77.9033 4 98 -11.2350 77.9000 TC 97 6 129
1982113S06085 1982 26 SI MM KARLA 1982-04-29 06:00:00 TS -11.4750 78.2000 72 954 reunion main 1967 1966 O____O____O_O_ jtwc_sh SH271982 -11.4000 78.2000 100 3 -11.7000 78.2000 4 72 954 5.00000 5.00000 -11.4000 78.2000 4 100 -11.4000 78.2000 TC 100 7 127
1982113S06085 1982 26 SI MM KARLA 1982-04-29 09:00:00 TS -11.6674 78.4860 main 1985 1984 P____P____P_P_ SH271982 -11.5850 78.5075 100 3 -11.9076 78.4425 4 -11.5921 78.4863 4 98 -11.5850 78.5075 TC 100 7 126
1982113S06085 1982 26 SI MM KARLA 1982-04-29 12:00:00 TS -11.8781 78.7663 reunion main 2004 2004 O____O____P_O_ jtwc_sh SH271982 -11.8000 78.8000 100 3 -12.1000 78.7000 99 9.90000 -11.8124 78.7650 4 97 -11.8000 78.8000 TC 100 7 133
1982113S06085 1982 26 SI MM KARLA 1982-04-29 15:00:00 TS -12.1341 79.0004 main 2024 2024 P____P____P_P_ SH271982 -12.0425 79.0575 97 3 -12.3999 78.8501 99 -12.0515 79.0363 4 96 -12.0425 79.0575 TC 97 7 139
1982113S06085 1982 26 SI MM KARLA 1982-04-29 18:00:00 TS -12.4000 79.2250 reunion main 2056 2055 O____O____O_O_ jtwc_sh SH271982 -12.3000 79.3000 95 2 -12.7000 79.0000 99 9.90000 -12.3000 79.3000 4 95 -12.3000 79.3000 TC 95 7 137
1982113S06085 1982 26 SI MM KARLA 1982-04-29 21:00:00 TS -12.6336 79.4721 main 2076 2076 P____P____P_P_ SH271982 -12.5500 79.5500 92 2 -12.9000 79.2351 99 -12.5346 79.5534 4 92 -12.5500 79.5500 TC 92 7 134
1982113S06085 1982 26 SI MM KARLA 1982-04-30 00:00:00 TS -12.8693 79.7251 reunion main 2108 2108 O____O____P_O_ jtwc_sh SH271982 -12.8000 79.8000 90 2 -13.1000 79.5000 99 9.90000 -12.7773 79.8004 4 90 -12.8000 79.8000 TC 90 7 135
1982113S06085 1982 26 SI MM KARLA 1982-04-30 03:00:00 TS -13.1310 79.9762 main 2129 2129 P____P____P_P_ SH271982 -13.0425 80.0426 87 2 -13.4075 79.7724 99 -13.0314 80.0472 4 87 -13.0425 80.0426 TC 87 7 137
1982113S06085 1982 26 SI MM KARLA 1982-04-30 06:00:00 TS -13.4000 80.2250 92 927 reunion main 2162 2162 O____O____O_O_ jtwc_sh SH271982 -13.3000 80.3000 85 2 -13.7000 80.0000 4 92 927 6.00000 6.00000 -13.3000 80.3000 4 85 -13.3000 80.3000 TC 85 7 138
1982113S06085 1982 26 SI MM KARLA 1982-04-30 09:00:00 TS -13.6579 80.4709 main 2195 2195 P____P____P_P_ SH271982 -13.5925 80.6000 82 1 -13.8649 80.1077 4 -13.5816 80.5760 4 82 -13.5925 80.6000 TC 82 7 138
1982113S06085 1982 26 SI MM KARLA 1982-04-30 12:00:00 TS -13.9194 80.7144 main 2218 2218 O____O____P_O_ jtwc_sh SH271982 -13.9000 80.9000 80 1 -14.0000 80.2000 99 9.90000 -13.8775 80.8576 4 80 -13.9000 80.9000 TC 80 7 139
1982113S06085 1982 26 SI MM KARLA 1982-04-30 15:00:00 TS -14.1962 80.9608 main 2252 2252 P____P____P_P_ SH271982 -14.1999 81.1576 77 1 -14.2000 80.3924 99 -14.1847 81.1354 4 77 -14.1999 81.1576 TC 77 7 140
1982113S06085 1982 26 SI MM KARLA 1982-04-30 18:00:00 TS -14.4750 81.2000 main 2286 2286 O____O____O_O_ jtwc_sh SH271982 -14.5000 81.4000 75 1 -14.4000 80.6000 99 9.90000 -14.5000 81.4000 4 75 -14.5000 81.4000 TC 75 7 140
1982113S06085 1982 26 SI MM KARLA 1982-04-30 21:00:00 TS -14.7350 81.4271 main 2309 2309 P____P____P_P_ SH271982 -14.7925 81.6576 72 1 -14.5575 80.7576 99 -14.7973 81.6358 4 72 -14.7925 81.6576 TC 72 7 141
1982113S06085 1982 26 SI MM KARLA 1982-05-01 00:00:00 TS -15.0012 81.6396 main 2344 2344 O____O____P_O_ jtwc_sh SH271982 -15.1000 81.9000 70 1 -14.7000 80.9000 99 9.90000 -15.1048 81.8582 4 70 -15.1000 81.9000 TC 70 7 145
1982113S06085 1982 26 SI MM KARLA 1982-05-01 03:00:00 TS -15.2849 81.8280 main 2378 2378 P____P____P_P_ SH271982 -15.4274 82.1002 67 1 -14.8500 81.0350 99 -15.4349 82.0765 4 67 -15.4274 82.1002 TC 67 7 148
1982113S06085 1982 26 SI MM KARLA 1982-05-01 06:00:00 TS -15.6000 82.0250 main 2413 2412 O____O____O_O_ jtwc_sh SH271982 -15.8000 82.3000 65 1 -15.0000 81.2000 99 9.90000 -15.8000 82.3000 4 65 -15.8000 82.3000 TC 65 8 147
1982113S06085 1982 26 SI MM KARLA 1982-05-01 09:00:00 TS -15.9558 82.2745 main 2424 2422 P____P____P_P_ SH271982 -16.2350 82.5425 62 0 -15.1351 81.4500 99 -16.2182 82.5628 4 62 -16.2350 82.5425 TC 62 9 147
1982113S06085 1982 26 SI MM KARLA 1982-05-01 12:00:00 TS -16.3425 82.5324 main 2429 2428 O____O____P_O_ jtwc_sh SH271982 -16.7000 82.8000 60 0 -15.3000 81.7000 99 9.90000 -16.6702 82.8295 4 60 -16.7000 82.8000 TC 60 9 149
1982113S06085 1982 26 SI MM KARLA 1982-05-01 15:00:00 TS -16.7468 82.7691 main 2435 2435 P____P____P_P_ SH271982 -17.1500 83.0650 57 0 -15.5500 81.8650 99 -17.1370 83.0815 4 57 -17.1500 83.0650 TC 57 9 152
1982113S06085 1982 26 SI MM KARLA 1982-05-01 18:00:00 TS -17.1500 82.9750 main 2449 2457 O____O____O_O_ jtwc_sh SH271982 -17.6000 83.3000 55 0 -15.8000 82.0000 99 9.90000 -17.6000 83.3000 2 55 -17.6000 83.3000 TC 55 9 156
1982113S06085 1982 26 SI MM KARLA 1982-05-01 21:00:00 TS -17.5236 83.1379 main 2472 2472 P____P____P_P_ SH271982 -18.0575 83.4726 50 0 -15.9349 82.1352 99 -18.0445 83.4712 2 50 -18.0575 83.4726 TC 50 6 160
1982113S06085 1982 26 SI MM KARLA 1982-05-02 00:00:00 TS -17.7551 83.2006 main 2488 2488 O____O____P_O_ jtwc_sh SH271982 -18.5000 83.6000 45 0 -16.1000 82.3000 99 9.90000 -18.4723 83.6027 2 45 -18.5000 83.6000 TC 45 4 165
1982113S06085 1982 26 SI MM KARLA 1982-05-02 03:00:00 TS -17.9008 83.2405 main 2496 2489 P____P____P_P_ SH271982 -18.9100 83.7049 40 0 -16.3975 82.5425 99 -18.8890 83.7079 2 40 -18.9100 83.7049 TC 40 1 168
1982113S06085 1982 26 SI MM KARLA 1982-05-02 06:00:00 TS -17.8714 83.2286 main 2496 2465 O____O____O_O_ jtwc_sh SH271982 -19.3000 83.8000 35 0 -16.8000 82.8000 3 36 991 3.00000 3.00000 -19.3000 83.8000 2 35 -19.3000 83.8000 TC 35 7 338
1982113S06085 1982 26 SI MM KARLA 1982-05-02 09:00:00 TS -17.2999 82.9852 main 2465 2465 _____P________ SH271982 -1 -17.2999 82.9852 3 2 TC 1 0
1982113S06085 1982 26 SI MM KARLA 1982-05-02 12:00:00 NR -17.8000 83.2000 main 2488 2488 _____O________ -1 -17.8000 83.2000 99 9.90000 2 10 148
1982113S06085 1982 26 SI MM KARLA 1982-05-02 15:00:00 NR -18.1426 83.5352 main 2490 2484 _____P________ -1 -18.1426 83.5352 99 2 10 136
1982113S06085 1982 26 SI MM KARLA 1982-05-02 18:00:00 NR -18.5000 83.9000 main 2493 2493 _____O________ -1 -18.5000 83.9000 99 9.90000 11 144
1982113S06085 1982 26 SI MM KARLA 1982-05-02 21:00:00 NR -18.9974 84.2003 main 2514 2514 _____P________ -1 -18.9974 84.2003 99 12 153
1982113S06085 1982 26 SI MM KARLA 1982-05-03 00:00:00 NR -19.6000 84.5000 main 2544 2544 _____O________ -1 -19.6000 84.5000 99 9.90000 14 155
1982113S06085 1982 26 SI MM KARLA 1982-05-03 03:00:00 NR -20.2925 84.8499 main 2585 2579 _____P________ -1 -20.2925 84.8499 99 16 155
1982113S06085 1982 26 SI MM KARLA 1982-05-03 06:00:00 TS -21.0000 85.2000 main 2622 2622 _____O________ -1 -21.0000 85.2000 2 24 1000 2.00000 2.00000 14 154
1982113S06085 1982 26 SI MM KARLA 1982-05-03 09:00:00 TS -21.5850 85.5303 main 2659 2653 _____P________ -1 -21.5850 85.5303 2 13 155
1982113S06085 1982 26 SI MM KARLA 1982-05-03 12:00:00 NR -22.2000 85.8000 main 2697 2697 _____O________ -1 -22.2000 85.8000 99 9.90000 14 163
1982113S06085 1982 26 SI MM KARLA 1982-05-03 15:00:00 NR -22.9400 85.9877 main 2733 2733 _____P________ -1 -22.9400 85.9877 99 16 170
1982113S06085 1982 26 SI MM KARLA 1982-05-03 18:00:00 NR -23.8000 86.1000 main 2747 2718 _____O________ -1 -23.8000 86.1000 99 9.90000 18 175
1982113S06085 1982 26 SI MM KARLA 1982-05-03 21:00:00 NR -24.7550 86.1654 main 2716 2701 _____P________ -1 -24.7550 86.1654 99 20 178
1982113S06085 1982 26 SI MM KARLA 1982-05-04 00:00:00 NR -25.8000 86.2000 main 2700 2688 _____O________ -1 -25.8000 86.2000 99 9.90000 21 178
1982113S06085 1982 26 SI MM KARLA 1982-05-04 03:00:00 NR -26.8900 86.2446 main 2687 2670 _____P________ -1 -26.8900 86.2446 99 22 178
1982113S06085 1982 26 SI MM KARLA 1982-05-04 06:00:00 ET -28.0000 86.3000 main 2670 _____O________ -1 -28.0000 86.3000 5 9.90000 22 177

IBTrACS Databaseについて

本データベースは、米国NOAAが公開する1842年以降の世界の熱帯低気圧のベストトラックデータアーカイブInternational Best Track Archive for Climate Stewardship (IBTrACS)を、ウェブで閲覧しやすい形式に変換したものです。

最終更新日:2021-10-25